sensor_id;sensor_type;location;lat;lon;timestamp;P1;durP1;ratioP1;P2;durP2;ratioP2
2542;SDS011;1116;51.502;7.414;2023-03-23T00:00:45;4.33;;;3.50;;
2542;SDS011;1116;51.502;7.414;2023-03-23T00:03:16;4.53;;;4.00;;
2542;SDS011;1116;51.502;7.414;2023-03-23T00:05:51;4.50;;;3.70;;
2542;SDS011;1116;51.502;7.414;2023-03-23T00:08:45;6.87;;;4.03;;
2542;SDS011;1116;51.502;7.414;2023-03-23T00:11:28;5.00;;;3.97;;
2542;SDS011;1116;51.502;7.414;2023-03-23T00:14:00;6.03;;;4.60;;
2542;SDS011;1116;51.502;7.414;2023-03-23T00:16:33;4.87;;;4.37;;
2542;SDS011;1116;51.502;7.414;2023-03-23T00:19:05;6.10;;;4.13;;
2542;SDS011;1116;51.502;7.414;2023-03-23T00:21:43;5.60;;;4.13;;
2542;SDS011;1116;51.502;7.414;2023-03-23T00:24:21;4.87;;;3.90;;
2542;SDS011;1116;51.502;7.414;2023-03-23T00:26:54;3.67;;;3.33;;
2542;SDS011;1116;51.502;7.414;2023-03-23T00:29:26;5.03;;;3.27;;
2542;SDS011;1116;51.502;7.414;2023-03-23T00:31:57;5.07;;;3.10;;
2542;SDS011;1116;51.502;7.414;2023-03-23T00:34:29;3.90;;;3.27;;
2542;SDS011;1116;51.502;7.414;2023-03-23T00:37:02;5.10;;;3.80;;
2542;SDS011;1116;51.502;7.414;2023-03-23T00:39:33;6.30;;;3.00;;
2542;SDS011;1116;51.502;7.414;2023-03-23T00:42:08;3.23;;;2.93;;
2542;SDS011;1116;51.502;7.414;2023-03-23T00:44:40;3.50;;;3.00;;
2542;SDS011;1116;51.502;7.414;2023-03-23T00:47:44;4.00;;;3.27;;
2542;SDS011;1116;51.502;7.414;2023-03-23T00:50:15;5.50;;;3.10;;
2542;SDS011;1116;51.502;7.414;2023-03-23T00:53:00;6.40;;;3.40;;
2542;SDS011;1116;51.502;7.414;2023-03-23T00:55:31;4.50;;;3.00;;
2542;SDS011;1116;51.502;7.414;2023-03-23T00:58:05;3.53;;;3.07;;
2542;SDS011;1116;51.502;7.414;2023-03-23T01:00:37;4.37;;;3.17;;
2542;SDS011;1116;51.502;7.414;2023-03-23T01:03:10;5.13;;;3.33;;
2542;SDS011;1116;51.502;7.414;2023-03-23T01:05:45;4.67;;;3.00;;
2542;SDS011;1116;51.502;7.414;2023-03-23T01:08:19;3.57;;;2.60;;
2542;SDS011;1116;51.502;7.414;2023-03-23T01:10:50;2.93;;;2.67;;
2542;SDS011;1116;51.502;7.414;2023-03-23T01:13:27;3.77;;;2.80;;
2542;SDS011;1116;51.502;7.414;2023-03-23T01:16:02;3.50;;;2.70;;
2542;SDS011;1116;51.502;7.414;2023-03-23T01:18:41;3.13;;;2.30;;
2542;SDS011;1116;51.502;7.414;2023-03-23T01:29:34;5.20;;;2.77;;
2542;SDS011;1116;51.502;7.414;2023-03-23T01:32:06;4.50;;;2.47;;
2542;SDS011;1116;51.502;7.414;2023-03-23T01:34:37;5.27;;;2.80;;
2542;SDS011;1116;51.502;7.414;2023-03-23T01:37:09;2.93;;;2.60;;
2542;SDS011;1116;51.502;7.414;2023-03-23T01:47:27;2.73;;;2.53;;
2542;SDS011;1116;51.502;7.414;2023-03-23T01:49:58;4.20;;;2.57;;
2542;SDS011;1116;51.502;7.414;2023-03-23T01:52:29;3.97;;;2.70;;
2542;SDS011;1116;51.502;7.414;2023-03-23T01:55:02;4.40;;;3.00;;
2542;SDS011;1116;51.502;7.414;2023-03-23T01:57:36;2.93;;;2.27;;
2542;SDS011;1116;51.502;7.414;2023-03-23T02:00:34;4.03;;;2.47;;
2542;SDS011;1116;51.502;7.414;2023-03-23T02:06:27;3.70;;;2.87;;
2542;SDS011;1116;51.502;7.414;2023-03-23T02:08:58;2.70;;;2.50;;
2542;SDS011;1116;51.502;7.414;2023-03-23T02:11:37;3.13;;;2.80;;
2542;SDS011;1116;51.502;7.414;2023-03-23T02:14:11;3.03;;;2.57;;
2542;SDS011;1116;51.502;7.414;2023-03-23T02:16:43;2.70;;;2.50;;
2542;SDS011;1116;51.502;7.414;2023-03-23T02:19:27;3.37;;;2.60;;
2542;SDS011;1116;51.502;7.414;2023-03-23T02:22:34;3.30;;;2.10;;
2542;SDS011;1116;51.502;7.414;2023-03-23T02:25:42;3.13;;;2.60;;
2542;SDS011;1116;51.502;7.414;2023-03-23T02:35:41;2.47;;;2.27;;
2542;SDS011;1116;51.502;7.414;2023-03-23T02:38:16;3.13;;;2.90;;
2542;SDS011;1116;51.502;7.414;2023-03-23T02:40:54;2.67;;;2.20;;
2542;SDS011;1116;51.502;7.414;2023-03-23T02:43:28;3.03;;;2.50;;
2542;SDS011;1116;51.502;7.414;2023-03-23T02:46:04;2.53;;;2.33;;
2542;SDS011;1116;51.502;7.414;2023-03-23T02:48:37;2.30;;;2.00;;
2542;SDS011;1116;51.502;7.414;2023-03-23T02:51:13;5.00;;;2.73;;
2542;SDS011;1116;51.502;7.414;2023-03-23T02:53:47;3.80;;;2.73;;
2542;SDS011;1116;51.502;7.414;2023-03-23T02:57:13;2.70;;;2.50;;
2542;SDS011;1116;51.502;7.414;2023-03-23T03:03:25;3.23;;;2.80;;
2542;SDS011;1116;51.502;7.414;2023-03-23T03:06:00;4.20;;;2.93;;
2542;SDS011;1116;51.502;7.414;2023-03-23T03:08:41;3.77;;;2.93;;
2542;SDS011;1116;51.502;7.414;2023-03-23T03:11:17;4.00;;;3.57;;
2542;SDS011;1116;51.502;7.414;2023-03-23T03:13:54;3.03;;;2.73;;
2542;SDS011;1116;51.502;7.414;2023-03-23T03:16:30;4.67;;;2.80;;
2542;SDS011;1116;51.502;7.414;2023-03-23T03:19:14;3.40;;;3.10;;
2542;SDS011;1116;51.502;7.414;2023-03-23T03:25:44;4.60;;;2.33;;
2542;SDS011;1116;51.502;7.414;2023-03-23T03:28:17;4.10;;;2.60;;
2542;SDS011;1116;51.502;7.414;2023-03-23T03:30:50;4.53;;;3.17;;
2542;SDS011;1116;51.502;7.414;2023-03-23T03:33:25;3.13;;;2.50;;
2542;SDS011;1116;51.502;7.414;2023-03-23T03:36:02;3.57;;;2.57;;
2542;SDS011;1116;51.502;7.414;2023-03-23T03:38:43;2.50;;;2.20;;
2542;SDS011;1116;51.502;7.414;2023-03-23T03:45:42;2.97;;;2.50;;
2542;SDS011;1116;51.502;7.414;2023-03-23T03:48:52;2.87;;;2.57;;
2542;SDS011;1116;51.502;7.414;2023-03-23T03:51:26;3.67;;;2.63;;
2542;SDS011;1116;51.502;7.414;2023-03-23T03:53:59;2.97;;;2.10;;
2542;SDS011;1116;51.502;7.414;2023-03-23T03:56:31;3.90;;;2.10;;
2542;SDS011;1116;51.502;7.414;2023-03-23T03:59:04;2.70;;;2.50;;
2542;SDS011;1116;51.502;7.414;2023-03-23T04:01:50;2.33;;;2.13;;
2542;SDS011;1116;51.502;7.414;2023-03-23T04:04:22;2.90;;;2.70;;
2542;SDS011;1116;51.502;7.414;2023-03-23T04:13:49;2.60;;;2.37;;
2542;SDS011;1116;51.502;7.414;2023-03-23T04:16:20;3.10;;;2.30;;
2542;SDS011;1116;51.502;7.414;2023-03-23T04:18:56;2.40;;;2.20;;
2542;SDS011;1116;51.502;7.414;2023-03-23T04:21:31;3.90;;;2.87;;
2542;SDS011;1116;51.502;7.414;2023-03-23T04:27:38;3.00;;;2.73;;
2542;SDS011;1116;51.502;7.414;2023-03-23T04:30:12;7.17;;;2.40;;
2542;SDS011;1116;51.502;7.414;2023-03-23T04:32:43;2.20;;;2.00;;
2542;SDS011;1116;51.502;7.414;2023-03-23T04:35:22;1.97;;;1.87;;
2542;SDS011;1116;51.502;7.414;2023-03-23T04:38:16;2.57;;;2.30;;
2542;SDS011;1116;51.502;7.414;2023-03-23T04:41:43;2.73;;;2.13;;
2542;SDS011;1116;51.502;7.414;2023-03-23T04:44:14;2.63;;;2.23;;
2542;SDS011;1116;51.502;7.414;2023-03-23T04:46:49;2.10;;;1.87;;
2542;SDS011;1116;51.502;7.414;2023-03-23T04:49:24;2.30;;;2.00;;
2542;SDS011;1116;51.502;7.414;2023-03-23T04:52:30;2.97;;;2.37;;
2542;SDS011;1116;51.502;7.414;2023-03-23T04:55:36;2.40;;;2.20;;
2542;SDS011;1116;51.502;7.414;2023-03-23T04:58:09;2.63;;;2.40;;
2542;SDS011;1116;51.502;7.414;2023-03-23T05:00:42;4.33;;;2.10;;
2542;SDS011;1116;51.502;7.414;2023-03-23T05:03:17;3.20;;;2.13;;
2542;SDS011;1116;51.502;7.414;2023-03-23T05:05:54;2.00;;;1.80;;
2542;SDS011;1116;51.502;7.414;2023-03-23T05:16:22;2.80;;;2.40;;
2542;SDS011;1116;51.502;7.414;2023-03-23T05:18:53;2.23;;;2.03;;
2542;SDS011;1116;51.502;7.414;2023-03-23T05:21:38;2.87;;;2.40;;
2542;SDS011;1116;51.502;7.414;2023-03-23T05:24:49;3.00;;;1.90;;
2542;SDS011;1116;51.502;7.414;2023-03-23T05:27:24;4.30;;;2.20;;
2542;SDS011;1116;51.502;7.414;2023-03-23T05:30:01;3.70;;;1.63;;
2542;SDS011;1116;51.502;7.414;2023-03-23T05:32:32;2.00;;;1.87;;
2542;SDS011;1116;51.502;7.414;2023-03-23T05:35:10;2.10;;;1.90;;
2542;SDS011;1116;51.502;7.414;2023-03-23T05:40:52;2.20;;;1.60;;
2542;SDS011;1116;51.502;7.414;2023-03-23T05:43:24;2.20;;;1.97;;
2542;SDS011;1116;51.502;7.414;2023-03-23T05:46:03;2.70;;;2.20;;
2542;SDS011;1116;51.502;7.414;2023-03-23T05:49:12;2.60;;;2.30;;
2542;SDS011;1116;51.502;7.414;2023-03-23T05:51:51;2.63;;;1.80;;
2542;SDS011;1116;51.502;7.414;2023-03-23T05:54:22;2.90;;;1.90;;
2542;SDS011;1116;51.502;7.414;2023-03-23T05:56:53;2.20;;;2.00;;
2542;SDS011;1116;51.502;7.414;2023-03-23T05:59:24;2.90;;;2.60;;
2542;SDS011;1116;51.502;7.414;2023-03-23T06:01:58;2.50;;;1.97;;
2542;SDS011;1116;51.502;7.414;2023-03-23T06:04:32;2.30;;;2.07;;
2542;SDS011;1116;51.502;7.414;2023-03-23T06:07:08;2.20;;;2.00;;
2542;SDS011;1116;51.502;7.414;2023-03-23T06:09:43;2.07;;;1.97;;
2542;SDS011;1116;51.502;7.414;2023-03-23T06:12:15;2.43;;;2.00;;
2542;SDS011;1116;51.502;7.414;2023-03-23T06:14:48;2.90;;;2.30;;
2542;SDS011;1116;51.502;7.414;2023-03-23T06:17:21;2.00;;;1.90;;
2542;SDS011;1116;51.502;7.414;2023-03-23T06:19:52;3.60;;;2.43;;
2542;SDS011;1116;51.502;7.414;2023-03-23T06:22:24;4.53;;;2.10;;
2542;SDS011;1116;51.502;7.414;2023-03-23T06:24:55;2.73;;;2.07;;
2542;SDS011;1116;51.502;7.414;2023-03-23T06:27:27;2.33;;;1.70;;
2542;SDS011;1116;51.502;7.414;2023-03-23T06:29:57;2.50;;;2.30;;
2542;SDS011;1116;51.502;7.414;2023-03-23T06:32:32;2.40;;;2.07;;
2542;SDS011;1116;51.502;7.414;2023-03-23T06:35:04;3.50;;;2.30;;
2542;SDS011;1116;51.502;7.414;2023-03-23T06:37:38;2.63;;;2.43;;
2542;SDS011;1116;51.502;7.414;2023-03-23T06:40:10;2.10;;;1.90;;
2542;SDS011;1116;51.502;7.414;2023-03-23T06:42:41;3.93;;;2.77;;
2542;SDS011;1116;51.502;7.414;2023-03-23T06:45:12;2.40;;;2.00;;
2542;SDS011;1116;51.502;7.414;2023-03-23T06:47:46;2.50;;;2.30;;
2542;SDS011;1116;51.502;7.414;2023-03-23T06:50:17;2.80;;;2.60;;
2542;SDS011;1116;51.502;7.414;2023-03-23T06:52:48;2.80;;;2.00;;
2542;SDS011;1116;51.502;7.414;2023-03-23T06:55:28;3.40;;;2.20;;
2542;SDS011;1116;51.502;7.414;2023-03-23T06:57:58;2.67;;;2.17;;
2542;SDS011;1116;51.502;7.414;2023-03-23T07:00:31;3.50;;;2.80;;
2542;SDS011;1116;51.502;7.414;2023-03-23T07:03:05;2.40;;;2.20;;
2542;SDS011;1116;51.502;7.414;2023-03-23T07:05:36;4.00;;;2.53;;
2542;SDS011;1116;51.502;7.414;2023-03-23T07:08:20;3.60;;;2.40;;
2542;SDS011;1116;51.502;7.414;2023-03-23T07:10:51;3.47;;;2.17;;
2542;SDS011;1116;51.502;7.414;2023-03-23T07:13:31;2.43;;;2.13;;
2542;SDS011;1116;51.502;7.414;2023-03-23T07:16:04;5.50;;;2.10;;
2542;SDS011;1116;51.502;7.414;2023-03-23T07:18:42;4.37;;;2.23;;
2542;SDS011;1116;51.502;7.414;2023-03-23T07:21:16;3.40;;;2.30;;
2542;SDS011;1116;51.502;7.414;2023-03-23T07:23:47;4.03;;;2.20;;
2542;SDS011;1116;51.502;7.414;2023-03-23T07:26:18;2.53;;;1.90;;
2542;SDS011;1116;51.502;7.414;2023-03-23T07:28:50;2.90;;;2.03;;
2542;SDS011;1116;51.502;7.414;2023-03-23T07:31:32;3.20;;;2.07;;
2542;SDS011;1116;51.502;7.414;2023-03-23T07:34:05;5.00;;;2.40;;
2542;SDS011;1116;51.502;7.414;2023-03-23T07:36:36;3.60;;;2.50;;
2542;SDS011;1116;51.502;7.414;2023-03-23T07:39:07;4.43;;;2.50;;
2542;SDS011;1116;51.502;7.414;2023-03-23T07:41:41;3.03;;;2.10;;
2542;SDS011;1116;51.502;7.414;2023-03-23T07:44:12;3.00;;;2.17;;
2542;SDS011;1116;51.502;7.414;2023-03-23T07:46:43;3.10;;;2.57;;
2542;SDS011;1116;51.502;7.414;2023-03-23T07:49:17;6.27;;;2.30;;
2542;SDS011;1116;51.502;7.414;2023-03-23T07:51:50;5.20;;;2.50;;
2542;SDS011;1116;51.502;7.414;2023-03-23T07:54:21;3.87;;;1.97;;
2542;SDS011;1116;51.502;7.414;2023-03-23T07:56:52;4.03;;;2.30;;
2542;SDS011;1116;51.502;7.414;2023-03-23T07:59:23;2.30;;;1.67;;
2542;SDS011;1116;51.502;7.414;2023-03-23T08:01:57;4.30;;;2.10;;
2542;SDS011;1116;51.502;7.414;2023-03-23T08:04:34;3.73;;;2.00;;
2542;SDS011;1116;51.502;7.414;2023-03-23T08:07:05;3.63;;;1.90;;
2542;SDS011;1116;51.502;7.414;2023-03-23T08:09:49;4.03;;;1.93;;
2542;SDS011;1116;51.502;7.414;2023-03-23T08:12:23;5.20;;;2.00;;
2542;SDS011;1116;51.502;7.414;2023-03-23T08:14:54;2.20;;;1.57;;
2542;SDS011;1116;51.502;7.414;2023-03-23T08:17:26;6.77;;;2.03;;
2542;SDS011;1116;51.502;7.414;2023-03-23T08:20:02;5.43;;;2.00;;
2542;SDS011;1116;51.502;7.414;2023-03-23T08:22:40;3.43;;;1.90;;
2542;SDS011;1116;51.502;7.414;2023-03-23T08:25:20;3.43;;;1.70;;
2542;SDS011;1116;51.502;7.414;2023-03-23T08:27:54;5.00;;;1.93;;
2542;SDS011;1116;51.502;7.414;2023-03-23T08:30:29;4.40;;;2.13;;
2542;SDS011;1116;51.502;7.414;2023-03-23T08:33:01;2.40;;;1.80;;
2542;SDS011;1116;51.502;7.414;2023-03-23T08:35:36;5.13;;;2.00;;
2542;SDS011;1116;51.502;7.414;2023-03-23T08:38:07;2.70;;;1.80;;
2542;SDS011;1116;51.502;7.414;2023-03-23T08:40:40;4.83;;;2.20;;
2542;SDS011;1116;51.502;7.414;2023-03-23T08:43:11;2.50;;;1.80;;
2542;SDS011;1116;51.502;7.414;2023-03-23T08:45:42;3.60;;;1.97;;
2542;SDS011;1116;51.502;7.414;2023-03-23T08:48:15;2.60;;;1.87;;
2542;SDS011;1116;51.502;7.414;2023-03-23T08:50:49;5.23;;;2.30;;
2542;SDS011;1116;51.502;7.414;2023-03-23T08:53:24;3.53;;;2.00;;
2542;SDS011;1116;51.502;7.414;2023-03-23T08:56:02;5.10;;;2.10;;
2542;SDS011;1116;51.502;7.414;2023-03-23T08:58:37;2.60;;;1.90;;
2542;SDS011;1116;51.502;7.414;2023-03-23T09:01:09;3.47;;;1.63;;
2542;SDS011;1116;51.502;7.414;2023-03-23T09:03:44;5.27;;;2.30;;
2542;SDS011;1116;51.502;7.414;2023-03-23T09:06:19;3.77;;;1.90;;
2542;SDS011;1116;51.502;7.414;2023-03-23T09:08:50;4.17;;;1.67;;
2542;SDS011;1116;51.502;7.414;2023-03-23T09:11:23;2.63;;;1.83;;
2542;SDS011;1116;51.502;7.414;2023-03-23T09:13:54;6.33;;;2.63;;
2542;SDS011;1116;51.502;7.414;2023-03-23T09:16:26;2.17;;;1.97;;
2542;SDS011;1116;51.502;7.414;2023-03-23T09:18:58;3.20;;;1.70;;
2542;SDS011;1116;51.502;7.414;2023-03-23T09:21:33;4.10;;;1.60;;
2542;SDS011;1116;51.502;7.414;2023-03-23T09:24:04;3.93;;;2.37;;
2542;SDS011;1116;51.502;7.414;2023-03-23T09:26:37;6.70;;;2.30;;
2542;SDS011;1116;51.502;7.414;2023-03-23T09:29:08;3.60;;;1.67;;
2542;SDS011;1116;51.502;7.414;2023-03-23T09:31:45;5.17;;;2.50;;
2542;SDS011;1116;51.502;7.414;2023-03-23T09:34:16;3.80;;;2.10;;
2542;SDS011;1116;51.502;7.414;2023-03-23T09:36:52;3.37;;;1.90;;
2542;SDS011;1116;51.502;7.414;2023-03-23T09:39:30;3.50;;;1.90;;
2542;SDS011;1116;51.502;7.414;2023-03-23T09:42:12;5.43;;;2.40;;
2542;SDS011;1116;51.502;7.414;2023-03-23T09:44:58;4.13;;;1.83;;
2542;SDS011;1116;51.502;7.414;2023-03-23T09:47:37;3.43;;;1.40;;
2542;SDS011;1116;51.502;7.414;2023-03-23T09:50:22;5.80;;;2.13;;
2542;SDS011;1116;51.502;7.414;2023-03-23T09:53:09;4.10;;;1.80;;
2542;SDS011;1116;51.502;7.414;2023-03-23T09:55:45;4.23;;;2.10;;
2542;SDS011;1116;51.502;7.414;2023-03-23T09:58:19;4.87;;;2.10;;
2542;SDS011;1116;51.502;7.414;2023-03-23T10:00:57;2.07;;;1.40;;
2542;SDS011;1116;51.502;7.414;2023-03-23T10:03:31;2.83;;;1.70;;
2542;SDS011;1116;51.502;7.414;2023-03-23T10:06:05;6.00;;;2.37;;
2542;SDS011;1116;51.502;7.414;2023-03-23T10:08:43;5.67;;;1.67;;
2542;SDS011;1116;51.502;7.414;2023-03-23T10:11:27;5.50;;;1.70;;
2542;SDS011;1116;51.502;7.414;2023-03-23T10:14:15;3.10;;;2.10;;
2542;SDS011;1116;51.502;7.414;2023-03-23T10:16:56;6.07;;;1.90;;
2542;SDS011;1116;51.502;7.414;2023-03-23T10:19:35;5.47;;;2.73;;
2542;SDS011;1116;51.502;7.414;2023-03-23T10:22:14;5.73;;;2.20;;
2542;SDS011;1116;51.502;7.414;2023-03-23T10:24:53;5.20;;;2.10;;
2542;SDS011;1116;51.502;7.414;2023-03-23T10:27:32;5.17;;;2.13;;
2542;SDS011;1116;51.502;7.414;2023-03-23T10:30:12;3.67;;;1.93;;
2542;SDS011;1116;51.502;7.414;2023-03-23T10:32:48;2.50;;;1.20;;
2542;SDS011;1116;51.502;7.414;2023-03-23T10:35:26;3.30;;;1.30;;
2542;SDS011;1116;51.502;7.414;2023-03-23T10:38:03;4.17;;;1.40;;
2542;SDS011;1116;51.502;7.414;2023-03-23T10:40:43;3.23;;;1.30;;
2542;SDS011;1116;51.502;7.414;2023-03-23T10:43:18;2.63;;;1.20;;
2542;SDS011;1116;51.502;7.414;2023-03-23T10:45:51;6.60;;;1.77;;
2542;SDS011;1116;51.502;7.414;2023-03-23T10:48:28;3.50;;;1.70;;
2542;SDS011;1116;51.502;7.414;2023-03-23T10:51:02;3.70;;;1.77;;
2542;SDS011;1116;51.502;7.414;2023-03-23T10:53:36;5.37;;;1.90;;
2542;SDS011;1116;51.502;7.414;2023-03-23T10:56:20;3.53;;;1.50;;
2542;SDS011;1116;51.502;7.414;2023-03-23T10:58:53;4.03;;;1.50;;
2542;SDS011;1116;51.502;7.414;2023-03-23T11:01:30;3.10;;;1.50;;
2542;SDS011;1116;51.502;7.414;2023-03-23T11:04:10;2.67;;;1.33;;
2542;SDS011;1116;51.502;7.414;2023-03-23T11:06:43;2.50;;;1.57;;
2542;SDS011;1116;51.502;7.414;2023-03-23T11:09:20;4.63;;;2.20;;
2542;SDS011;1116;51.502;7.414;2023-03-23T11:12:15;1.37;;;1.27;;
2542;SDS011;1116;51.502;7.414;2023-03-23T11:14:47;2.93;;;1.43;;
2542;SDS011;1116;51.502;7.414;2023-03-23T11:17:20;4.10;;;1.83;;
2542;SDS011;1116;51.502;7.414;2023-03-23T11:19:54;2.50;;;1.43;;
2542;SDS011;1116;51.502;7.414;2023-03-23T11:22:27;2.87;;;1.97;;
2542;SDS011;1116;51.502;7.414;2023-03-23T11:25:04;2.70;;;2.10;;
2542;SDS011;1116;51.502;7.414;2023-03-23T11:27:39;2.30;;;2.00;;
2542;SDS011;1116;51.502;7.414;2023-03-23T11:30:11;4.60;;;1.83;;
2542;SDS011;1116;51.502;7.414;2023-03-23T11:32:51;6.70;;;2.20;;
2542;SDS011;1116;51.502;7.414;2023-03-23T11:35:25;5.17;;;2.20;;
2542;SDS011;1116;51.502;7.414;2023-03-23T11:37:58;4.77;;;2.53;;
2542;SDS011;1116;51.502;7.414;2023-03-23T11:40:30;4.37;;;2.80;;
2542;SDS011;1116;51.502;7.414;2023-03-23T11:43:12;3.20;;;2.90;;
2542;SDS011;1116;51.502;7.414;2023-03-23T11:45:47;4.23;;;2.63;;
2542;SDS011;1116;51.502;7.414;2023-03-23T11:48:25;2.93;;;2.63;;
2542;SDS011;1116;51.502;7.414;2023-03-23T11:51:05;3.53;;;2.63;;
2542;SDS011;1116;51.502;7.414;2023-03-23T11:53:45;4.67;;;2.70;;
2542;SDS011;1116;51.502;7.414;2023-03-23T11:56:23;3.63;;;2.93;;
2542;SDS011;1116;51.502;7.414;2023-03-23T11:58:58;3.83;;;3.17;;
2542;SDS011;1116;51.502;7.414;2023-03-23T12:01:37;5.57;;;3.47;;
2542;SDS011;1116;51.502;7.414;2023-03-23T12:07:14;5.00;;;4.60;;
2542;SDS011;1116;51.502;7.414;2023-03-23T12:16:33;8.53;;;6.27;;
2542;SDS011;1116;51.502;7.414;2023-03-23T12:19:14;6.43;;;5.00;;
2542;SDS011;1116;51.502;7.414;2023-03-23T12:21:53;7.43;;;4.93;;
2542;SDS011;1116;51.502;7.414;2023-03-23T12:24:34;4.57;;;3.60;;
2542;SDS011;1116;51.502;7.414;2023-03-23T12:27:16;3.07;;;2.77;;
2542;SDS011;1116;51.502;7.414;2023-03-23T12:30:16;3.63;;;2.83;;
2542;SDS011;1116;51.502;7.414;2023-03-23T12:33:11;3.57;;;2.00;;
2542;SDS011;1116;51.502;7.414;2023-03-23T12:35:50;2.47;;;2.20;;
2542;SDS011;1116;51.502;7.414;2023-03-23T12:38:36;1.90;;;1.70;;
2542;SDS011;1116;51.502;7.414;2023-03-23T12:41:34;2.13;;;1.93;;
2542;SDS011;1116;51.502;7.414;2023-03-23T12:44:12;3.50;;;2.00;;
2542;SDS011;1116;51.502;7.414;2023-03-23T12:46:57;3.20;;;2.50;;
2542;SDS011;1116;51.502;7.414;2023-03-23T12:49:41;2.93;;;2.37;;
2542;SDS011;1116;51.502;7.414;2023-03-23T12:52:18;5.53;;;1.90;;
2542;SDS011;1116;51.502;7.414;2023-03-23T12:54:53;2.87;;;2.00;;
2542;SDS011;1116;51.502;7.414;2023-03-23T12:57:32;3.57;;;2.10;;
2542;SDS011;1116;51.502;7.414;2023-03-23T13:00:07;2.90;;;2.10;;
2542;SDS011;1116;51.502;7.414;2023-03-23T13:02:46;3.77;;;3.07;;
2542;SDS011;1116;51.502;7.414;2023-03-23T13:05:32;3.60;;;2.60;;
2542;SDS011;1116;51.502;7.414;2023-03-23T13:08:14;3.73;;;1.90;;
2542;SDS011;1116;51.502;7.414;2023-03-23T13:10:49;3.00;;;1.50;;
2542;SDS011;1116;51.502;7.414;2023-03-23T13:13:22;3.50;;;2.17;;
2542;SDS011;1116;51.502;7.414;2023-03-23T13:16:07;3.10;;;1.90;;
2542;SDS011;1116;51.502;7.414;2023-03-23T13:18:49;3.27;;;2.23;;
2542;SDS011;1116;51.502;7.414;2023-03-23T13:21:32;3.60;;;2.50;;
2542;SDS011;1116;51.502;7.414;2023-03-23T13:24:08;2.83;;;2.10;;
2542;SDS011;1116;51.502;7.414;2023-03-23T13:26:44;2.47;;;2.27;;
2542;SDS011;1116;51.502;7.414;2023-03-23T13:29:16;2.10;;;2.00;;
2542;SDS011;1116;51.502;7.414;2023-03-23T13:31:51;3.33;;;2.43;;
2542;SDS011;1116;51.502;7.414;2023-03-23T13:34:23;5.10;;;2.63;;
2542;SDS011;1116;51.502;7.414;2023-03-23T13:36:58;4.13;;;3.33;;
2542;SDS011;1116;51.502;7.414;2023-03-23T13:39:32;3.07;;;2.20;;
2542;SDS011;1116;51.502;7.414;2023-03-23T13:42:17;2.20;;;2.00;;
2542;SDS011;1116;51.502;7.414;2023-03-23T13:45:04;4.00;;;2.20;;
2542;SDS011;1116;51.502;7.414;2023-03-23T13:47:40;3.43;;;2.00;;
2542;SDS011;1116;51.502;7.414;2023-03-23T13:50:23;2.03;;;1.80;;
2542;SDS011;1116;51.502;7.414;2023-03-23T13:53:11;3.90;;;1.83;;
2542;SDS011;1116;51.502;7.414;2023-03-23T13:55:47;3.77;;;2.60;;
2542;SDS011;1116;51.502;7.414;2023-03-23T13:58:23;1.70;;;1.60;;
2542;SDS011;1116;51.502;7.414;2023-03-23T14:03:53;3.47;;;2.00;;
2542;SDS011;1116;51.502;7.414;2023-03-23T14:06:26;2.43;;;2.20;;
2542;SDS011;1116;51.502;7.414;2023-03-23T14:09:11;3.80;;;2.27;;
2542;SDS011;1116;51.502;7.414;2023-03-23T14:11:49;4.07;;;2.20;;
2542;SDS011;1116;51.502;7.414;2023-03-23T14:14:26;3.40;;;2.40;;
2542;SDS011;1116;51.502;7.414;2023-03-23T14:17:07;4.40;;;2.50;;
2542;SDS011;1116;51.502;7.414;2023-03-23T14:19:44;3.80;;;3.00;;
2542;SDS011;1116;51.502;7.414;2023-03-23T14:22:26;3.57;;;2.97;;
2542;SDS011;1116;51.502;7.414;2023-03-23T14:25:02;3.90;;;3.60;;
2542;SDS011;1116;51.502;7.414;2023-03-23T14:27:42;4.30;;;3.90;;
2542;SDS011;1116;51.502;7.414;2023-03-23T14:30:14;4.50;;;3.93;;
2542;SDS011;1116;51.502;7.414;2023-03-23T14:32:47;4.60;;;4.20;;
2542;SDS011;1116;51.502;7.414;2023-03-23T14:35:23;4.70;;;4.30;;
2542;SDS011;1116;51.502;7.414;2023-03-23T14:37:57;5.00;;;4.50;;
2542;SDS011;1116;51.502;7.414;2023-03-23T14:40:35;4.50;;;4.20;;
2542;SDS011;1116;51.502;7.414;2023-03-23T14:43:10;5.47;;;4.37;;
2542;SDS011;1116;51.502;7.414;2023-03-23T14:45:51;5.03;;;4.27;;
2542;SDS011;1116;51.502;7.414;2023-03-23T14:48:25;5.97;;;5.00;;
2542;SDS011;1116;51.502;7.414;2023-03-23T14:51:00;7.47;;;6.00;;
2542;SDS011;1116;51.502;7.414;2023-03-23T14:53:36;7.17;;;5.80;;
2542;SDS011;1116;51.502;7.414;2023-03-23T14:56:12;6.83;;;5.80;;
2542;SDS011;1116;51.502;7.414;2023-03-23T14:58:47;7.93;;;6.30;;
2542;SDS011;1116;51.502;7.414;2023-03-23T15:01:21;7.40;;;6.70;;
2542;SDS011;1116;51.502;7.414;2023-03-23T15:03:57;9.53;;;7.30;;
2542;SDS011;1116;51.502;7.414;2023-03-23T15:06:33;6.40;;;5.73;;
2542;SDS011;1116;51.502;7.414;2023-03-23T15:09:07;8.00;;;5.43;;
2542;SDS011;1116;51.502;7.414;2023-03-23T15:11:50;6.70;;;5.20;;
2542;SDS011;1116;51.502;7.414;2023-03-23T15:14:26;6.10;;;5.57;;
2542;SDS011;1116;51.502;7.414;2023-03-23T15:17:00;6.13;;;5.20;;
2542;SDS011;1116;51.502;7.414;2023-03-23T15:19:33;6.40;;;5.43;;
2542;SDS011;1116;51.502;7.414;2023-03-23T15:22:06;6.47;;;4.17;;
2542;SDS011;1116;51.502;7.414;2023-03-23T15:25:02;5.47;;;4.13;;
2542;SDS011;1116;51.502;7.414;2023-03-23T15:27:42;4.47;;;4.07;;
2542;SDS011;1116;51.502;7.414;2023-03-23T15:30:33;5.60;;;3.20;;
2542;SDS011;1116;51.502;7.414;2023-03-23T15:33:12;4.83;;;2.90;;
2542;SDS011;1116;51.502;7.414;2023-03-23T15:35:55;5.13;;;2.50;;
2542;SDS011;1116;51.502;7.414;2023-03-23T15:38:30;2.63;;;2.43;;
2542;SDS011;1116;51.502;7.414;2023-03-23T15:41:05;4.33;;;3.10;;
2542;SDS011;1116;51.502;7.414;2023-03-23T15:43:53;3.47;;;2.47;;
2542;SDS011;1116;51.502;7.414;2023-03-23T15:46:29;3.30;;;2.17;;
2542;SDS011;1116;51.502;7.414;2023-03-23T15:49:10;2.80;;;2.37;;
2542;SDS011;1116;51.502;7.414;2023-03-23T15:51:43;3.23;;;2.33;;
2542;SDS011;1116;51.502;7.414;2023-03-23T15:54:18;2.83;;;2.17;;
2542;SDS011;1116;51.502;7.414;2023-03-23T15:56:51;3.80;;;2.00;;
2542;SDS011;1116;51.502;7.414;2023-03-23T15:59:27;3.50;;;2.50;;
2542;SDS011;1116;51.502;7.414;2023-03-23T16:02:03;4.83;;;2.70;;
2542;SDS011;1116;51.502;7.414;2023-03-23T16:04:40;3.70;;;2.10;;
2542;SDS011;1116;51.502;7.414;2023-03-23T16:07:22;3.53;;;2.30;;
2542;SDS011;1116;51.502;7.414;2023-03-23T16:10:00;2.73;;;2.07;;
2542;SDS011;1116;51.502;7.414;2023-03-23T16:12:33;3.33;;;2.00;;
2542;SDS011;1116;51.502;7.414;2023-03-23T16:15:15;5.80;;;2.50;;
2542;SDS011;1116;51.502;7.414;2023-03-23T16:17:48;3.30;;;2.43;;
2542;SDS011;1116;51.502;7.414;2023-03-23T16:20:22;4.43;;;2.17;;
2542;SDS011;1116;51.502;7.414;2023-03-23T16:22:55;4.23;;;2.40;;
2542;SDS011;1116;51.502;7.414;2023-03-23T16:25:27;4.33;;;2.20;;
2542;SDS011;1116;51.502;7.414;2023-03-23T16:28:07;4.10;;;2.60;;
2542;SDS011;1116;51.502;7.414;2023-03-23T16:30:44;4.00;;;2.30;;
2542;SDS011;1116;51.502;7.414;2023-03-23T16:33:31;3.50;;;2.07;;
2542;SDS011;1116;51.502;7.414;2023-03-23T16:36:06;5.67;;;2.30;;
2542;SDS011;1116;51.502;7.414;2023-03-23T16:38:43;3.47;;;2.53;;
2542;SDS011;1116;51.502;7.414;2023-03-23T16:41:16;5.07;;;2.67;;
2542;SDS011;1116;51.502;7.414;2023-03-23T16:43:55;5.10;;;2.90;;
2542;SDS011;1116;51.502;7.414;2023-03-23T16:46:32;3.70;;;2.30;;
2542;SDS011;1116;51.502;7.414;2023-03-23T16:49:05;5.23;;;2.57;;
2542;SDS011;1116;51.502;7.414;2023-03-23T16:51:36;4.53;;;2.33;;
2542;SDS011;1116;51.502;7.414;2023-03-23T16:54:09;3.80;;;2.50;;
2542;SDS011;1116;51.502;7.414;2023-03-23T16:56:43;5.30;;;2.40;;
2542;SDS011;1116;51.502;7.414;2023-03-23T16:59:18;4.70;;;2.70;;
2542;SDS011;1116;51.502;7.414;2023-03-23T17:01:58;4.03;;;2.70;;
2542;SDS011;1116;51.502;7.414;2023-03-23T17:04:33;5.80;;;3.27;;
2542;SDS011;1116;51.502;7.414;2023-03-23T17:07:05;5.53;;;3.20;;
2542;SDS011;1116;51.502;7.414;2023-03-23T17:09:36;8.20;;;3.20;;
2542;SDS011;1116;51.502;7.414;2023-03-23T17:12:09;6.43;;;3.23;;
2542;SDS011;1116;51.502;7.414;2023-03-23T17:14:41;4.73;;;3.00;;
2542;SDS011;1116;51.502;7.414;2023-03-23T17:17:15;4.73;;;3.33;;
2542;SDS011;1116;51.502;7.414;2023-03-23T17:19:47;6.00;;;3.47;;
2542;SDS011;1116;51.502;7.414;2023-03-23T17:22:19;3.60;;;3.20;;
2542;SDS011;1116;51.502;7.414;2023-03-23T17:24:52;5.67;;;3.03;;
2542;SDS011;1116;51.502;7.414;2023-03-23T17:27:24;4.50;;;3.00;;